Flight Track Log - Related Links

Times and Time Zones

All times are in EDT time to prevent confusion due to time zone crossing. See the EJA601 flight status page for this flight to view local times or setup timezone preferences in your user account.

Time Position Orientation Groundspeed Altitude Reporting Facility
EDT Latitude Longitude Course Direction KTS MPH feet Rate Location/Type
Sun 08:56:54 AM 40.8122 -74.1872 246° West 200 230 5,400  Level New York Center
Sun 08:57:55 AM 40.7964 -74.2961 259° West 255 293 9,400 3,508 Climbing New York Center
Sun 08:58:52 AM 40.7811 -74.3886 258° West 287 330 12,300 3,277 Climbing New York Center
Sun 08:59:54 AM 40.7628 -74.5081 259° West 305 351 15,900 3,197 Climbing New York Center
Sun 09:00:54 AM 40.7514 -74.6089 262° West 311 358 18,800 3,102 Climbing New York Center
Sun 09:01:00 AM 40.7286 -74.7230 259° West  Level FlightAware Approximate
Sun 09:01:52 AM 40.7325 -74.7336 259° West 311 358 22,000  Level New York Center
Sun 09:02:00 AM 40.7152 -74.8376 246° West  Level FlightAware Approximate
Sun 09:02:53 AM 40.7161 -74.8506 260° West 316 364 24,700  Level New York Center
Sun 09:03:53 AM 40.6994 -74.9672 259° West 326 375 27,300 2,430 Climbing New York Center
Sun 09:04:54 AM 40.6806 -75.0864 258° West 331 381 29,600 2,168 Climbing New York Center
Sun 09:05:52 AM 40.6331 -75.1928 240° Southwest 336 387 31,600 2,050 Climbing New York Center
Sun 09:06:54 AM 40.5831 -75.3017 239° Southwest 343 395 33,700 2,115 Climbing New York Center
Sun 09:07:54 AM 40.5397 -75.3972 239° Southwest 343 395 35,900 1,160 Climbing New York Center
Sun 09:08:53 AM 40.4919 -75.5003 239° Southwest 343 395 36,000 50 Climbing New York Center
Sun 09:09:53 AM 40.4439 -75.6036 239° Southwest 338 389 36,000  Level New York Center
Sun 09:10:53 AM 40.3981 -75.7039 239° Southwest 332 382 36,000  Level New York Center
Sun 09:11:55 AM 40.3567 -75.7961 240° Southwest 321 369 36,000  Level New York Center
Sun 09:12:52 AM 40.3086 -75.8933 237° Southwest 321 369 36,000  Level New York Center
Sun 09:13:52 AM 40.2606 -75.9906 237° Southwest 316 364 36,000  Level New York Center
Sun 09:14:53 AM 40.2169 -76.0850 239° Southwest 316 364 36,000  Level New York Center
Sun 09:16:36 AM 40.1367 -76.2644 240° Southwest 313 360 36,000  Level Washington Center
Sun 09:17:37 AM 40.0903 -76.3617 238° Southwest 319 367 36,000  Level Washington Center
Sun 09:18:37 AM 40.0439 -76.4614 239° Southwest 319 367 36,000  Level Washington Center
Sun 09:19:38 AM 39.9931 -76.5636 237° Southwest 319 367 36,000  Level Washington Center
Sun 09:20:35 AM 39.9464 -76.6658 239° Southwest 332 382 36,000  Level Washington Center
Sun 09:21:37 AM 39.8997 -76.7572 236° Southwest 332 382 36,000  Level Washington Center
Sun 09:22:38 AM 39.8528 -76.8617 240° Southwest 338 389 36,000 252 Level Washington Center
Sun 09:23:36 AM 39.8039 -76.9636 238° Southwest 338 389 36,500 966 Climbing Washington Center
Sun 09:24:36 AM 39.7567 -77.0681 240° Southwest 338 389 37,900 744 Climbing Washington Center
Sun 09:25:37 AM 39.7053 -77.1747 238° Southwest 343 395 38,000 49 Climbing Washington Center
Sun 09:26:38 AM 39.6539 -77.2842 239° Southwest 348 400 38,000  Level Washington Center
Sun 09:27:35 AM 39.6022 -77.3906 238° Southwest 353 406 38,000  Level Washington Center
Sun 09:28:37 AM 39.5528 -77.4969 239° Southwest 353 406 38,000  Level Washington Center
Sun 09:29:38 AM 39.5031 -77.6006 238° Southwest 353 406 38,000  Level Washington Center
Sun 09:30:35 AM 39.4556 -77.7042 239° Southwest 353 406 38,000  Level Washington Center
Sun 09:31:36 AM 39.4078 -77.8050 239° Southwest 343 395 38,000  Level Washington Center
Sun 09:32:36 AM 39.3622 -77.9056 240° Southwest 337 388 38,000  Level Washington Center
Sun 09:33:38 AM 39.3228 -78.0089 244° Southwest 331 381 38,000  Level Washington Center
Sun 09:34:35 AM 39.2808 -78.1147 243° Southwest 326 375 38,000  Level Washington Center
Sun 09:35:36 AM 39.2392 -78.2178 242° Southwest 326 375 38,000  Level Washington Center
Sun 09:36:37 AM 39.1972 -78.3208 242° Southwest 321 369 38,000  Level Washington Center
Sun 09:37:37 AM 39.1575 -78.4208 243° Southwest 321 369 38,000  Level Washington Center
Sun 09:38:37 AM 39.1153 -78.5264 243° Southwest 321 369 38,000  Level Washington Center
Sun 09:39:36 AM 39.0731 -78.6264 241° Southwest 321 369 38,000  Level Washington Center
Sun 09:40:36 AM 39.0331 -78.7314 244° Southwest 321 369 38,000  Level Washington Center
Sun 09:41:37 AM 38.9906 -78.8339 242° Southwest 321 369 38,000  Level Washington Center
Sun 09:42:37 AM 38.9503 -78.9361 243° Southwest 321 369 38,000  Level Washington Center
Sun 09:43:37 AM 38.9078 -79.0356 241° Southwest 321 369 38,000  Level Washington Center
Sun 09:44:36 AM 38.8653 -79.1403 242° Southwest 321 369 38,000  Level Washington Center
Sun 09:45:37 AM 38.8328 -79.2453 248° West 321 369 38,000  Level Washington Center
Sun 09:46:37 AM 38.8128 -79.3536 257° West 321 369 38,000  Level Washington Center
Sun 09:47:36 AM 38.7947 -79.4672 259° West 321 369 38,000  Level Washington Center
Sun 09:48:37 AM 38.7742 -79.5858 258° West 326 375 38,000  Level Washington Center
Sun 09:49:37 AM 38.7536 -79.6967 257° West 331 381 38,000  Level Washington Center
Sun 09:51:12 AM 38.7189 -79.8761 256° West 327 376 38,000  Level Indianapolis Center
Sun 09:52:13 AM 38.6986 -79.9911 257° West 331 381 38,000  Level Indianapolis Center
Sun 09:53:15 AM 38.6861 -80.1083 262° West 331 381 38,000  Level Indianapolis Center
Sun 09:54:17 AM 38.6703 -80.2231 260° West 329 379 38,000  Level Indianapolis Center
Sun 09:55:19 AM 38.6567 -80.3397 262° West 331 381 38,000  Level Indianapolis Center
Sun 09:56:20 AM 38.6381 -80.4786 260° West 329 379 38,000  Level Indianapolis Center
Sun 09:57:22 AM 38.6231 -80.5950 261° West 331 381 38,000 -339 Level Indianapolis Center
Sun 09:58:24 AM 38.6083 -80.7111 261° West 331 381 37,300 -968 Descending Indianapolis Center
Sun 09:59:26 AM 38.5933 -80.8269 261° West 330 380 36,000 -976 Descending Indianapolis Center
Sun 10:00:27 AM 38.5778 -80.9478 261° West 341 392 35,300 -1,073 Descending Indianapolis Center
Sun 10:01:29 AM 38.5608 -81.0722 260° West 352 405 33,800 -1,403 Descending Indianapolis Center
Sun 10:02:31 AM 38.5447 -81.1964 261° West 353 406 32,400 -1,403 Descending Indianapolis Center
Sun 10:03:33 AM 38.5278 -81.3186 260° West 347 399 30,900 -1,463 Descending Indianapolis Center
Sun 10:04:34 AM 38.5106 -81.4436 260° West 351 404 29,400 -927 Descending Indianapolis Center
Sun 10:05:36 AM 38.4933 -81.5725 260° West 361 415 29,000 -194 Descending Indianapolis Center
Sun 10:06:38 AM 38.4761 -81.6989 260° West 357 411 29,000  Level Indianapolis Center
Sun 10:07:39 AM 38.4561 -81.8475 260° West 354 407 29,000  Level Indianapolis Center
Sun 10:08:41 AM 38.4383 -81.9717 260° West 354 407 29,000 -97 Level Indianapolis Center
Sun 10:09:43 AM 38.4211 -82.0950 260° West 352 405 28,800 -823 Descending Indianapolis Center
Sun 10:10:45 AM 38.4036 -82.2208 260° West 359 413 27,300 -1,463 Descending Indianapolis Center
Sun 10:11:46 AM 38.3847 -82.3447 259° West 356 410 25,800 -1,415 Descending Indianapolis Center
Sun 10:12:48 AM 38.3675 -82.4686 260° West 355 409 24,400 -1,258 Descending Indianapolis Center
Sun 10:13:50 AM 38.3478 -82.6086 260° West 361 415 23,200 -1,306 Descending Indianapolis Center
Sun 10:14:52 AM 38.3286 -82.7383 259° West 369 425 21,700 -1,415 Descending Indianapolis Center
Sun 10:15:53 AM 38.3097 -82.8614 259° West 358 412 20,300 -1,415 Descending Indianapolis Center
Sun 10:16:55 AM 38.2914 -82.9819 259° West 348 400 18,800 -1,500 Descending Indianapolis Center
Sun 10:17:57 AM 38.2703 -83.1239 259° West 350 403 17,200 -1,500 Descending Indianapolis Center
Sun 10:18:59 AM 38.2511 -83.2472 259° West 356 410 15,700 -1,463 Descending Indianapolis Center
Sun 10:20:00 AM 38.2342 -83.3653 260° West 343 395 14,200 -1,122 Descending Indianapolis Center
Sun 10:21:02 AM 38.2178 -83.4728 259° West 319 367 13,400 -1,113 Descending Indianapolis Center
Sun 10:22:04 AM 38.2008 -83.5792 259° West 309 356 11,900 -1,171 Descending Indianapolis Center
Sun 10:23:05 AM 38.1844 -83.6833 259° West 302 348 11,000 -439 Descending Indianapolis Center
Sun 10:24:07 AM 38.1681 -83.7894 259° West 306 352 11,000 -242 Level Indianapolis Center
Sun 10:25:09 AM 38.1508 -83.9100 260° West 298 343 10,500 -1,659 Descending Indianapolis Center
Sun 10:26:10 AM 38.1464 -83.9981 266° West 252 290 7,600 -2,927 Descending Indianapolis Center
Sun 10:27:12 AM 38.1447 -84.0850 269° West 248 285 4,500 -1,742 Descending Indianapolis Center
Sun 10:28:14 AM 38.1394 -84.1689 265° West 244 281 4,000 -244 Descending Indianapolis Center
Sun 10:29:15 AM 38.1358 -84.2533 267° West 241 277 4,000 -98 Level Indianapolis Center
Sun 10:30:17 AM 38.1328 -84.3356 267° West 238 274 3,800 -484 Descending Indianapolis Center
Sun 10:31:19 AM 38.1283 -84.4350 267° West 239 275 3,000 -390 Descending Indianapolis Center
Sun 10:32:20 AM 38.1183 -84.5119 261° West 230 265 3,000 -390 Level Indianapolis Center
Sun 10:33:22 AM 38.0817 -84.5542 222° Southwest 199 229 2,200 -488 Descending Indianapolis Center
Sun 10:34:23 AM 38.0508 -84.5892 222° Southwest 192 221 2,000 -197 Descending Indianapolis Center
Sun 10:36:00 AM 38.0333 -84.6000 270° West  Level FlightAware Approximate
Sun 10:43:00 AM 38.0368 -84.6086 270° West  Level Estimated

Login

Don't have an account? Register now (free) for customized features, flight alerts, and more!